Time;durP1;ratioP1;P1;durP2;ratioP2;P2;SDS_P1;SDS_P2;PMS_P1;PMS_P2;Temp;Humidity;BMP_temperature;BMP_pressure;BME280_temperature;BME280_humidity;BME280_pressure;Samples;Min_cycle;Max_cycle;Signal;HPM_P1;HPM_P2
2023/05/07 00:01:32;;;;;;;4.18;3.88;;;12.90;99.90;;;13.71;95.17;97838.13;5107509;28;20231;-63
2023/05/07 00:04:07;;;;;;;4.25;3.83;;;12.90;99.90;;;13.70;94.83;97846.63;5117166;28;20224;-65
2023/05/07 00:06:40;;;;;;;4.78;4.47;;;12.90;99.90;;;13.70;94.77;97841.47;5118179;28;20628;-63
2023/05/07 00:09:13;;;;;;;5.28;4.80;;;12.90;99.90;;;13.66;94.44;97847.31;5118541;28;20676;-65
2023/05/07 00:11:46;;;;;;;4.63;4.22;;;12.80;99.90;;;13.60;95.74;97847.03;5114151;28;20304;-62
2023/05/07 00:14:20;;;;;;;4.90;4.50;;;12.80;99.90;;;13.55;96.53;97843.38;5117111;28;20201;-65
2023/05/07 00:16:53;;;;;;;4.50;4.15;;;12.80;99.90;;;13.55;96.69;97835.69;5114857;28;20205;-62
2023/05/07 00:19:28;;;;;;;4.80;4.50;;;12.80;99.90;;;13.51;97.35;97835.53;5112432;28;20262;-65
2023/05/07 00:22:01;;;;;;;5.30;4.78;;;12.70;99.90;;;13.50;98.23;97841.47;5117051;28;20208;-63
2023/05/07 00:24:34;;;;;;;5.18;4.78;;;12.70;99.90;;;13.47;97.04;97835.31;5118347;28;20201;-62
2023/05/07 00:27:07;;;;;;;4.80;4.38;;;12.70;99.90;;;13.39;97.21;97832.44;5118341;28;20205;-63
2023/05/07 00:29:40;;;;;;;5.13;4.72;;;12.60;99.90;;;13.46;97.69;97834.44;5121180;28;20228;-67
2023/05/07 00:32:13;;;;;;;5.07;4.63;;;12.70;99.90;;;13.47;98.30;97828.47;5141928;28;20601;-65
2023/05/07 00:34:47;;;;;;;4.97;4.50;;;12.70;99.90;;;13.51;98.73;97835.53;5105742;29;20201;-62
2023/05/07 00:37:20;;;;;;;5.15;4.75;;;12.70;99.90;;;13.49;99.33;97834.59;5119022;28;20573;-62
2023/05/07 00:39:53;;;;;;;7.20;4.93;;;12.70;99.90;;;13.50;100.00;97833.75;5120993;28;20311;-65
2023/05/07 00:42:27;;;;;;;5.30;4.80;;;12.70;99.90;;;13.45;99.02;97824.13;5119030;28;20208;-62
2023/05/07 00:45:00;;;;;;;5.38;4.90;;;12.60;99.90;;;13.46;99.91;97823.31;5119653;28;20208;-61
2023/05/07 00:47:33;;;;;;;5.90;5.05;;;12.60;99.90;;;13.47;100.00;97822.47;5116731;29;20212;-62
2023/05/07 00:50:12;;;;;;;6.07;5.03;;;12.70;99.90;;;13.50;99.87;97828.63;5120585;28;20593;-61
2023/05/07 00:52:45;;;;;;;5.07;4.68;;;12.60;99.90;;;13.52;99.01;97827.00;5109970;28;20201;-62
2023/05/07 00:55:19;;;;;;;5.25;4.85;;;12.60;99.90;;;13.52;99.46;97827.00;5109572;28;20291;-62
2023/05/07 00:57:53;;;;;;;5.32;4.78;;;12.60;99.90;;;13.48;99.70;97820.00;5119316;28;20287;-62
2023/05/07 01:00:26;;;;;;;5.10;4.68;;;12.60;99.90;;;13.44;100.00;97820.66;5113792;28;20225;-62
2023/05/07 01:02:59;;;;;;;6.40;4.90;;;12.60;99.90;;;13.40;100.00;97821.34;5116700;28;20316;-62
2023/05/07 01:05:35;;;;;;;5.82;5.15;;;12.50;99.90;;;13.26;99.71;97807.00;5119561;28;20358;-61
2023/05/07 01:08:08;;;;;;;6.32;5.70;;;12.40;99.90;;;13.31;99.16;97805.53;5119683;28;20346;-63
2023/05/07 01:10:42;;;;;;;5.97;5.57;;;12.40;99.90;;;13.31;99.93;97805.53;5117941;28;20768;-62
2023/05/07 01:13:16;;;;;;;6.13;5.63;;;12.50;99.90;;;13.30;98.62;97808.88;5115369;28;20667;-64
2023/05/07 01:15:49;;;;;;;5.78;5.07;;;12.40;99.90;;;13.25;98.61;97800.06;5113922;29;20208;-63
2023/05/07 01:18:23;;;;;;;5.60;5.10;;;12.40;99.90;;;13.13;98.95;97813.19;5119944;28;20589;-62
2023/05/07 01:20:59;;;;;;;5.35;4.97;;;12.30;99.90;;;13.15;98.50;97816.72;5117826;28;20208;-63
2023/05/07 01:23:36;;;;;;;5.47;4.97;;;12.40;99.90;;;13.00;99.54;97810.91;5117840;28;20228;-62
2023/05/07 01:26:09;;;;;;;5.70;5.20;;;12.20;99.90;;;12.94;99.90;97814.06;5117375;28;20208;-66
2023/05/07 01:28:42;;;;;;;5.75;5.15;;;12.20;99.90;;;12.84;99.39;97807.59;5105473;29;20233;-62
2023/05/07 01:31:16;;;;;;;5.40;4.93;;;12.10;99.90;;;12.82;100.00;97809.22;5119726;28;20679;-63
2023/05/07 01:33:50;;;;;;;6.22;5.38;;;12.00;99.90;;;12.88;100.00;97808.63;5119949;28;20196;-62
2023/05/07 01:36:26;;;;;;;6.35;5.22;;;12.10;99.90;;;12.86;100.00;97799.97;5113935;28;20215;-63
2023/05/07 01:39:00;;;;;;;5.47;5.07;;;12.10;99.90;;;12.87;100.00;97809.44;5105918;29;20224;-64
2023/05/07 01:41:33;;;;;;;4.95;4.45;;;12.00;99.90;;;12.82;100.00;97801.53;5118878;28;20207;-62
2023/05/07 01:44:07;;;;;;;4.85;4.55;;;12.10;99.90;;;12.87;100.00;97816.25;5118955;28;20312;-63
2023/05/07 01:46:40;;;;;;;5.47;4.97;;;12.10;99.90;;;12.85;100.00;97808.50;5114349;28;20584;-63
2023/05/07 01:49:13;;;;;;;5.35;4.90;;;12.10;99.90;;;12.88;100.00;97806.06;5113371;29;20225;-62
2023/05/07 01:51:46;;;;;;;5.15;4.75;;;12.10;99.90;;;12.84;100.00;97799.91;5118945;29;20212;-62
2023/05/07 01:54:21;;;;;;;5.78;5.30;;;12.10;99.90;;;12.80;99.72;97800.56;5115733;28;20201;-61
2023/05/07 01:56:54;;;;;;;5.10;4.47;;;12.10;99.90;;;12.80;100.00;97794.56;5115539;28;20215;-62
2023/05/07 01:59:27;;;;;;;4.95;4.53;;;12.00;99.90;;;12.82;100.00;97795.53;5115767;29;20238;-68
2023/05/07 02:02:00;;;;;;;5.72;5.13;;;12.00;99.90;;;12.82;100.00;97798.09;5118005;28;20296;-63
2023/05/07 02:04:33;;;;;;;5.45;4.93;;;12.00;99.90;;;12.82;100.00;97792.97;5120315;28;20606;-62
2023/05/07 02:07:06;;;;;;;5.07;4.65;;;12.00;99.90;;;12.81;100.00;97796.31;5118081;28;20569;-62
2023/05/07 02:09:41;;;;;;;5.80;5.40;;;12.00;99.90;;;12.85;100.00;97793.09;5117341;28;20727;-62
2023/05/07 02:12:14;;;;;;;5.55;5.05;;;12.10;99.90;;;12.86;100.00;97792.28;5115863;28;20310;-62
2023/05/07 02:14:47;;;;;;;5.63;5.18;;;12.00;99.90;;;12.85;100.00;97782.84;5116483;29;20300;-63
2023/05/07 02:17:20;;;;;;;4.57;4.25;;;12.00;99.90;;;12.87;100.00;97788.91;5117609;28;20201;-62
2023/05/07 02:19:53;;;;;;;5.28;4.82;;;12.00;99.90;;;12.84;100.00;97792.19;5111028;28;20798;-65
2023/05/07 02:22:26;;;;;;;4.90;4.40;;;12.00;99.90;;;12.84;100.00;97791.31;5120482;28;20209;-62
2023/05/07 02:25:00;;;;;;;4.80;4.32;;;11.90;99.90;;;12.78;100.00;97788.47;5117667;29;20231;-63
2023/05/07 02:27:33;;;;;;;5.53;5.03;;;11.90;99.90;;;12.74;100.00;97792.59;5115082;28;20212;-63
2023/05/07 02:30:08;;;;;;;4.80;4.40;;;11.90;99.90;;;12.72;100.00;97790.75;5113653;29;20217;-63
2023/05/07 02:32:41;;;;;;;5.22;4.82;;;11.90;99.90;;;12.71;100.00;97794.13;5111992;28;20661;-62
2023/05/07 02:35:14;;;;;;;4.97;4.63;;;11.90;99.90;;;12.70;100.00;97800.06;5118677;28;20207;-63
2023/05/07 02:37:47;;;;;;;5.25;4.85;;;11.80;99.90;;;12.62;100.00;97792.88;5118621;29;20692;-61
2023/05/07 02:40:22;;;;;;;6.38;5.78;;;11.80;99.90;;;12.64;100.00;97795.50;5113060;28;20228;-64
2023/05/07 02:42:55;;;;;;;5.72;5.32;;;11.80;99.90;;;12.61;100.00;97796.25;5111967;28;20204;-63
2023/05/07 02:45:28;;;;;;;5.68;5.18;;;11.80;99.90;;;12.54;100.00;97796.75;5115412;29;20219;-63
2023/05/07 02:48:01;;;;;;;5.95;5.45;;;11.70;99.90;;;12.56;100.00;97799.38;5116781;28;20649;-62
2023/05/07 02:50:34;;;;;;;5.68;5.18;;;11.80;99.90;;;12.55;100.00;97802.78;5119673;28;20240;-63
2023/05/07 02:53:07;;;;;;;6.05;4.97;;;11.80;99.90;;;12.53;100.00;97797.59;5114485;28;20672;-65
2023/05/07 02:55:41;;;;;;;5.70;5.30;;;11.70;99.90;;;12.55;100.00;97798.50;5113510;28;20254;-62
2023/05/07 02:58:14;;;;;;;5.97;4.82;;;11.70;99.90;;;12.53;100.00;97797.59;5108606;29;20254;-63
2023/05/07 03:00:47;;;;;;;6.22;5.63;;;11.70;99.90;;;12.53;100.00;97795.03;5117175;28;20197;-63
2023/05/07 03:03:21;;;;;;;5.82;5.03;;;11.70;99.90;;;12.45;100.00;97795.41;5118654;28;20622;-63
2023/05/07 03:05:54;;;;;;;4.85;4.45;;;11.60;99.90;;;12.39;100.00;97798.59;5110336;28;20231;-62
2023/05/07 03:08:27;;;;;;;5.38;4.80;;;11.50;99.90;;;12.41;100.00;97799.53;5112471;28;20264;-61
2023/05/07 03:11:01;;;;;;;5.28;4.88;;;11.60;99.90;;;12.40;100.00;97803.78;5116412;28;20212;-65
2023/05/07 03:13:34;;;;;;;5.35;4.95;;;11.50;99.90;;;12.34;100.00;97800.06;5116100;28;20238;-64
2023/05/07 03:16:07;;;;;;;4.93;4.63;;;11.50;99.90;;;12.31;100.00;97799.91;5112292;28;20304;-66
2023/05/07 03:18:40;;;;;;;5.20;4.80;;;11.40;99.90;;;12.31;100.00;97797.34;5110871;28;20225;-65
2023/05/07 03:21:13;;;;;;;5.25;4.85;;;11.40;99.90;;;12.25;100.00;97797.03;5116478;28;20220;-64
2023/05/07 03:23:46;;;;;;;4.95;4.55;;;11.40;99.90;;;12.25;100.00;97795.34;5108862;28;20213;-64
2023/05/07 03:26:21;;;;;;;4.72;4.32;;;11.40;99.90;;;12.21;100.00;97793.41;5106111;29;20205;-64
2023/05/07 03:28:54;;;;;;;4.65;4.35;;;11.40;99.90;;;12.17;100.00;97789.84;5113932;28;20221;-64
2023/05/07 03:31:27;;;;;;;5.10;4.70;;;11.30;99.90;;;12.07;100.00;97787.59;5116283;28;20219;-64
2023/05/07 03:34:00;;;;;;;4.65;4.28;;;11.30;99.90;;;11.95;100.00;97789.56;5118986;28;20204;-64
2023/05/07 03:36:33;;;;;;;5.10;4.70;;;11.10;99.90;;;11.96;100.00;97781.09;5116094;28;20212;-63
2023/05/07 03:39:06;;;;;;;5.60;5.10;;;11.10;99.90;;;11.93;100.00;97786.03;5117984;28;20220;-64
2023/05/07 03:41:41;;;;;;;5.45;4.95;;;11.10;99.90;;;11.89;100.00;97781.56;5117833;28;20211;-63
2023/05/07 03:44:14;;;;;;;5.60;5.15;;;11.10;99.90;;;11.84;100.00;97776.19;5113047;29;20229;-64
2023/05/07 03:46:47;;;;;;;4.68;4.28;;;11.00;99.90;;;11.85;100.00;97787.31;5115253;28;20327;-64
2023/05/07 03:49:20;;;;;;;5.38;4.97;;;11.00;99.90;;;11.81;100.00;97782.84;5115141;28;20614;-64
2023/05/07 03:51:53;;;;;;;5.38;4.88;;;11.00;99.90;;;11.75;100.00;97795.31;5110718;28;20209;-65
2023/05/07 03:54:26;;;;;;;5.75;5.25;;;10.90;99.90;;;11.72;100.00;97793.47;5113983;28;20204;-62
2023/05/07 03:57:00;;;;;;;5.70;5.20;;;10.90;99.90;;;11.67;100.00;97800.91;5115703;28;20207;-63
2023/05/07 03:59:33;;;;;;;6.00;5.45;;;10.90;99.90;;;11.71;100.00;97807.97;5121550;28;20230;-63
2023/05/07 04:02:06;;;;;;;5.88;5.25;;;10.90;99.90;;;11.71;100.00;97800.28;5115120;28;20204;-63
2023/05/07 04:04:39;;;;;;;5.57;5.13;;;10.90;99.90;;;11.77;100.00;97806.53;5116905;28;20338;-63
2023/05/07 04:07:12;;;;;;;5.32;4.93;;;11.00;99.90;;;11.78;100.00;97809.16;5107486;28;20201;-62
2023/05/07 04:09:45;;;;;;;4.75;4.45;;;11.00;99.90;;;11.82;100.00;97803.41;5114846;28;20224;-62
2023/05/07 04:12:19;;;;;;;6.78;4.70;;;11.00;99.90;;;11.73;100.00;97808.94;5118826;29;20215;-63
2023/05/07 04:14:52;;;;;;;5.20;4.80;;;10.90;99.90;;;11.73;100.00;97806.38;5118238;28;20667;-63
2023/05/07 04:17:25;;;;;;;5.75;5.32;;;10.90;99.90;;;11.74;100.00;97812.38;5119581;29;20205;-64
2023/05/07 04:19:59;;;;;;;5.55;5.13;;;10.90;99.90;;;11.65;100.00;97812.78;5110610;28;20221;-62
2023/05/07 04:22:32;;;;;;;5.60;5.15;;;10.90;99.90;;;11.64;100.00;97811.00;5120181;28;20567;-63
2023/05/07 04:25:07;;;;;;;5.65;5.15;;;10.90;99.90;;;11.62;100.00;97811.75;5112974;28;20229;-64
2023/05/07 04:27:42;;;;;;;6.35;5.78;;;10.90;99.90;;;11.58;100.00;97812.38;5118937;28;20212;-63
2023/05/07 04:30:15;;;;;;;5.45;5.05;;;10.90;99.90;;;11.62;100.00;97807.50;5118059;28;20393;-62
2023/05/07 04:32:48;;;;;;;5.65;5.25;;;10.90;99.90;;;11.75;100.00;97813.25;5114428;28;20208;-63
2023/05/07 04:35:21;;;;;;;5.70;5.25;;;11.00;99.90;;;11.82;100.00;97815.34;5117585;28;20661;-64
2023/05/07 04:37:54;;;;;;;6.00;5.40;;;11.00;99.90;;;11.86;100.00;97813.03;5117182;28;20212;-64
2023/05/07 04:40:28;;;;;;;5.25;4.85;;;11.10;99.90;;;11.93;100.00;97807.44;5117910;28;20630;-63
2023/05/07 04:43:02;;;;;;;4.93;4.53;;;11.20;99.90;;;11.98;100.00;97815.34;5120122;28;20204;-63
2023/05/07 04:45:35;;;;;;;4.63;4.22;;;11.20;99.90;;;12.16;100.00;97818.84;5115505;28;20680;-63
2023/05/07 04:48:09;;;;;;;4.40;4.00;;;11.30;99.90;;;12.20;100.00;97813.88;5118603;28;20641;-63
2023/05/07 04:50:42;;;;;;;4.65;4.35;;;11.30;99.90;;;12.20;100.00;97813.88;5112818;28;20213;-63
2023/05/07 04:53:15;;;;;;;5.00;4.60;;;11.30;99.90;;;12.24;100.00;97823.44;5112886;28;20568;-62
2023/05/07 04:55:48;;;;;;;5.10;4.70;;;11.40;99.90;;;12.23;100.00;97819.13;5111531;29;20205;-63
2023/05/07 04:58:23;;;;;;;4.32;4.03;;;11.40;99.90;;;12.33;100.00;97822.25;5115654;29;20675;-63
2023/05/07 05:00:56;;;;;;;5.65;4.90;;;11.50;99.90;;;12.46;100.00;97826.28;5116555;28;20295;-64
2023/05/07 05:03:29;;;;;;;5.28;4.60;;;11.60;99.90;;;12.55;100.00;97829.28;5118507;28;20238;-64
2023/05/07 05:06:03;;;;;;;4.53;4.22;;;11.70;99.90;;;12.66;100.00;97827.25;5112470;28;20224;-63
2023/05/07 05:08:36;;;;;;;4.82;4.43;;;11.70;99.90;;;12.71;100.00;97830.03;5113912;28;20220;-64
2023/05/07 05:11:09;;;;;;;5.22;4.72;;;11.80;99.90;;;12.82;100.00;97828.88;5116766;29;20623;-62
2023/05/07 05:13:43;;;;;;;5.20;4.80;;;11.90;99.90;;;12.89;99.02;97836.03;5118202;28;20208;-63
2023/05/07 05:16:16;;;;;;;5.50;5.10;;;11.90;99.90;;;12.90;98.40;97840.34;5114015;28;20200;-63
2023/05/07 05:18:51;;;;;;;5.00;4.60;;;11.90;99.90;;;12.99;98.32;97848.50;5113548;28;20707;-65
2023/05/07 05:21:24;;;;;;;4.68;4.28;;;12.00;99.90;;;13.02;97.63;97846.09;5112068;28;20201;-64
2023/05/07 05:23:57;;;;;;;4.70;4.40;;;12.00;99.90;;;13.07;97.61;97852.28;5113769;28;20210;-64
2023/05/07 05:26:30;;;;;;;4.28;3.90;;;12.10;99.90;;;13.15;97.87;97851.78;5115088;28;20239;-63
2023/05/07 05:29:04;;;;;;;4.30;3.90;;;12.20;99.90;;;13.35;97.44;97852.75;5107144;28;20225;-63
2023/05/07 05:31:37;;;;;;;4.38;3.92;;;12.40;99.90;;;13.43;96.31;97854.84;5113972;28;20743;-64
2023/05/07 05:34:10;;;;;;;4.32;4.03;;;12.50;99.90;;;13.62;94.61;97853.09;5105504;28;20213;-63
2023/05/07 05:36:43;;;;;;;4.25;4.05;;;12.60;99.90;;;13.74;93.50;97844.28;5112157;28;20205;-64
2023/05/07 05:39:16;;;;;;;4.88;4.57;;;12.70;99.90;;;13.79;92.82;97847.03;5108695;28;20229;-63
2023/05/07 05:41:49;;;;;;;4.75;4.35;;;12.80;99.90;;;13.88;93.16;97846.56;5111203;28;20988;-64
2023/05/07 05:44:23;;;;;;;4.45;4.05;;;12.80;99.90;;;14.00;91.64;97853.94;5107229;28;20787;-64
2023/05/07 05:46:59;;;;;;;4.65;4.28;;;12.90;99.90;;;14.06;92.29;97854.19;5116107;28;20742;-63
2023/05/07 05:49:32;;;;;;;4.70;4.30;;;13.00;99.90;;;14.40;92.96;97856.50;5116407;28;20239;-63
2023/05/07 05:52:05;;;;;;;4.40;4.10;;;13.40;99.90;;;14.94;90.75;97848.44;5103823;28;20594;-63
2023/05/07 05:54:39;;;;;;;5.05;4.65;;;13.90;99.90;;;15.54;86.65;97849.06;5113778;29;20323;-64
2023/05/07 05:57:12;;;;;;;4.82;4.43;;;14.50;99.90;;;16.38;83.33;97838.31;5112170;28;20679;-63
2023/05/07 05:59:48;;;;;;;4.38;3.97;;;15.20;99.90;;;16.91;79.47;97846.06;5114138;28;20229;-64
2023/05/07 06:02:21;;;;;;;4.88;4.55;;;15.40;99.90;;;17.05;74.90;97849.97;5110875;28;20204;-64
2023/05/07 06:04:54;;;;;;;4.20;3.80;;;15.50;99.90;;;17.43;75.47;97848.59;5109554;29;20680;-63
2023/05/07 06:07:27;;;;;;;4.38;4.00;;;15.50;99.90;;;17.92;73.25;97855.19;5116009;28;20232;-63
2023/05/07 06:10:00;;;;;;;4.15;3.85;;;16.00;99.90;;;18.50;70.47;97842.06;5109010;28;20228;-63
2023/05/07 06:12:33;;;;;;;4.22;3.90;;;16.40;99.90;;;18.98;68.78;97845.03;5109510;28;20206;-64
2023/05/07 06:15:08;;;;;;;3.90;3.60;;;16.80;99.90;;;19.32;65.02;97838.03;5113153;28;20212;-64
2023/05/07 06:17:41;;;;;;;4.00;3.67;;;17.20;99.90;;;19.85;64.78;97837.44;5113644;29;20196;-64
2023/05/07 06:20:14;;;;;;;3.35;3.08;;;17.60;99.90;;;20.22;61.46;97845.06;5112455;28;20270;-64
2023/05/07 06:22:47;;;;;;;3.40;3.17;;;18.00;99.90;;;20.50;60.86;97844.72;5114430;28;20698;-64
2023/05/07 06:25:20;;;;;;;3.60;3.40;;;18.20;99.90;;;20.73;59.37;97847.75;5113573;28;20851;-64
2023/05/07 06:27:53;;;;;;;3.15;2.95;;;18.40;99.90;;;21.14;58.74;97840.59;5111688;28;20673;-63
2023/05/07 06:30:27;;;;;;;4.07;3.10;;;18.80;99.90;;;21.54;55.86;97842.06;5113573;28;20653;-64
2023/05/07 06:33:00;;;;;;;3.28;2.95;;;19.00;99.90;;;21.78;54.85;97830.22;5106437;28;20210;-64
2023/05/07 06:35:33;;;;;;;4.30;3.30;;;19.30;99.90;;;21.88;53.64;97837.28;5112395;28;20680;-63
2023/05/07 06:38:06;;;;;;;3.40;2.95;;;19.40;99.90;;;21.98;52.08;97839.16;5110410;28;20208;-64
2023/05/07 06:40:39;;;;;;;3.08;2.80;;;19.60;99.90;;;22.26;51.97;97848.19;5108833;28;20296;-64
2023/05/07 06:43:12;;;;;;;4.30;2.97;;;19.90;99.90;;;22.14;51.41;97842.78;5110225;28;20208;-64
2023/05/07 06:45:46;;;;;;;3.50;3.20;;;19.80;99.90;;;21.92;51.49;97854.69;5111853;29;20612;-64
2023/05/07 06:48:19;;;;;;;4.00;3.22;;;19.70;99.90;;;21.43;53.22;97863.56;5115013;29;20208;-64
2023/05/07 06:50:54;;;;;;;3.35;3.05;;;19.20;99.90;;;21.12;53.87;97853.56;5112374;28;20204;-66
2023/05/07 06:53:28;;;;;;;3.38;3.10;;;18.90;99.90;;;20.72;55.60;97856.34;5113878;28;20212;-66
2023/05/07 06:56:01;;;;;;;3.33;3.03;;;18.60;99.90;;;20.55;57.38;97854.38;5112173;28;20204;-67
2023/05/07 06:58:34;;;;;;;2.78;2.58;;;18.60;99.90;;;20.53;57.34;97850.88;5111187;28;20225;-66
2023/05/07 07:01:09;;;;;;;3.50;3.20;;;18.60;99.90;;;20.53;57.62;97850.00;5115538;28;20228;-66
2023/05/07 07:03:42;;;;;;;3.03;2.83;;;18.70;99.90;;;20.61;57.23;97849.28;5113169;28;20223;-65
2023/05/07 07:06:15;;;;;;;2.92;2.72;;;18.80;99.90;;;20.47;56.55;97853.31;5115600;28;20228;-66
2023/05/07 07:08:48;;;;;;;2.78;2.58;;;18.90;99.90;;;20.46;56.72;97849.84;5117081;28;20354;-66
2023/05/07 07:11:21;;;;;;;2.70;2.50;;;18.90;99.90;;;20.87;57.04;97848.84;5110373;28;20217;-67
2023/05/07 07:13:55;;;;;;;3.78;2.80;;;19.20;99.90;;;21.29;55.65;97855.53;5111494;28;20208;-65
2023/05/07 07:16:29;;;;;;;3.00;2.80;;;19.60;99.90;;;21.22;54.23;97846.78;5115715;28;20208;-66
2023/05/07 07:19:02;;;;;;;2.72;2.53;;;19.70;99.90;;;21.51;56.26;97844.63;5111853;28;20266;-66
2023/05/07 07:21:35;;;;;;;2.47;2.35;;;20.00;99.90;;;21.95;55.24;97848.66;5114103;29;20804;-65
2023/05/07 07:24:08;;;;;;;2.63;2.45;;;20.30;99.90;;;22.08;53.63;97840.13;5106905;28;20592;-65
2023/05/07 07:26:42;;;;;;;3.22;3.03;;;20.30;99.90;;;21.99;53.61;97846.09;5107024;28;20579;-66
2023/05/07 07:29:15;;;;;;;2.70;2.50;;;20.30;99.90;;;22.29;54.33;97834.31;5111349;28;20232;-66
2023/05/07 07:31:50;;;;;;;3.10;2.67;;;20.40;99.90;;;22.61;53.57;97836.34;5110266;28;20219;-66
2023/05/07 07:34:23;;;;;;;2.97;2.60;;;20.60;99.90;;;22.91;52.52;97836.59;5115133;28;20205;-66
2023/05/07 07:36:57;;;;;;;3.42;2.67;;;20.70;99.90;;;23.65;49.21;97837.09;5109646;28;20247;-65
2023/05/07 07:39:29;;;;;;;2.63;2.42;;;21.20;99.90;;;23.89;46.60;97830.25;5109239;28;20224;-66
2023/05/07 07:42:02;;;;;;;2.50;2.30;;;21.60;99.90;;;24.27;47.24;97828.66;5105823;28;20672;-66
2023/05/07 07:44:35;;;;;;;3.05;2.40;;;21.80;99.90;;;24.86;47.04;97833.94;5112922;28;20296;-66
2023/05/07 07:47:10;;;;;;;2.70;2.50;;;22.20;99.90;;;24.56;43.82;97840.91;5111940;28;20837;-66
2023/05/07 07:49:43;;;;;;;2.30;2.10;;;22.30;98.20;;;25.18;45.21;97836.56;5109591;28;20234;-66
2023/05/07 07:52:16;;;;;;;2.47;2.28;;;22.70;99.10;;;25.72;44.02;97832.06;5114418;29;20304;-65
2023/05/07 07:54:49;;;;;;;2.58;2.13;;;23.20;98.30;;;25.48;42.30;97832.16;5111240;28;20214;-66
2023/05/07 07:57:22;;;;;;;2.70;1.70;;;23.30;96.40;;;25.26;43.82;97836.56;5120421;28;20578;-67
2023/05/07 07:59:55;;;;;;;2.83;2.10;;;23.30;96.90;;;24.93;45.27;97833.09;5107905;28;20220;-66
2023/05/07 08:02:29;;;;;;;2.78;2.20;;;23.40;97.20;;;25.01;43.95;97833.97;5110670;29;20204;-66
2023/05/07 08:05:03;;;;;;;2.78;2.28;;;23.50;96.40;;;24.91;44.05;97832.22;5109886;29;20208;-66
2023/05/07 08:07:36;;;;;;;2.22;2.00;;;23.40;95.60;;;24.85;45.14;97843.53;5111378;28;20243;-65
2023/05/07 08:10:10;;;;;;;2.67;2.33;;;23.30;96.50;;;24.26;44.31;97850.38;5101840;28;20229;-66
2023/05/07 08:12:43;;;;;;;3.10;1.90;;;23.10;95.60;;;23.67;47.06;97832.75;5107331;28;20208;-66
2023/05/07 08:15:17;;;;;;;2.15;1.95;;;22.60;96.80;;;24.16;46.36;97840.81;5115692;28;20205;-65
2023/05/07 08:17:52;;;;;;;2.03;1.92;;;23.20;96.90;;;24.61;45.96;97839.19;5109576;28;20205;-64
2023/05/07 08:20:25;;;;;;;2.33;2.13;;;23.60;96.20;;;24.69;45.17;97842.66;5112610;28;20277;-65
2023/05/07 08:22:58;;;;;;;2.33;2.13;;;23.60;95.60;;;24.83;45.23;97839.19;5107715;28;20201;-65
2023/05/07 08:25:31;;;;;;;2.42;2.22;;;23.90;95.80;;;24.70;44.71;97838.31;5113506;28;20282;-64
2023/05/07 08:28:04;;;;;;;2.80;2.60;;;23.80;95.20;;;24.62;44.78;97829.59;5112917;28;20228;-65
2023/05/07 08:30:40;;;;;;;2.35;2.15;;;23.90;94.70;;;24.77;46.09;97831.34;5107281;28;20227;-65
2023/05/07 08:33:14;;;;;;;2.45;2.22;;;24.00;95.60;;;24.98;44.76;97833.97;5111884;28;20205;-65
2023/05/07 08:35:47;;;;;;;2.33;2.13;;;24.20;95.00;;;25.23;46.36;97833.94;5106819;28;20235;-65
2023/05/07 08:38:20;;;;;;;2.30;2.10;;;24.40;96.30;;;25.49;43.88;97820.81;5114302;28;20657;-65
2023/05/07 08:40:54;;;;;;;2.58;2.20;;;24.70;94.50;;;25.77;43.96;97811.09;5114484;28;20675;-65
2023/05/07 08:43:28;;;;;;;2.30;2.20;;;24.90;94.20;;;25.90;42.50;97820.69;5115626;28;20207;-63
2023/05/07 08:46:02;;;;;;;2.60;2.25;;;25.00;93.40;;;25.78;42.94;97812.84;5114769;28;20210;-64
2023/05/07 08:48:37;;;;;;;2.38;2.17;;;24.90;94.10;;;26.02;42.77;97818.00;5111498;28;20255;-65
2023/05/07 08:51:14;;;;;;;2.15;2.03;;;25.10;93.50;;;25.61;42.92;97815.53;5115660;28;20204;-65
2023/05/07 08:53:49;;;;;;;2.70;2.08;;;24.90;93.20;;;25.79;41.70;97815.47;5115618;28;20220;-64
2023/05/07 08:56:22;;;;;;;2.00;1.90;;;24.90;92.60;;;25.86;41.80;97815.47;5115154;28;20211;-65
2023/05/07 08:58:56;;;;;;;4.05;2.25;;;25.10;92.70;;;25.90;41.96;97815.47;5114040;28;20216;-64
2023/05/07 09:01:29;;;;;;;2.38;2.00;;;24.90;92.70;;;25.93;40.66;97812.81;5108469;28;20248;-65
2023/05/07 09:04:05;;;;;;;1.98;1.75;;;25.00;92.20;;;25.73;40.92;97820.72;5113544;28;20253;-65
2023/05/07 09:06:41;;;;;;;1.63;1.50;;;24.70;91.80;;;26.04;40.18;97820.59;5108511;28;20724;-65
2023/05/07 09:09:18;;;;;;;1.83;1.73;;;25.10;91.10;;;26.17;38.34;97818.81;5108439;28;20311;-65
2023/05/07 09:11:59;;;;;;;2.05;1.67;;;25.40;89.70;;;25.94;39.96;97814.56;5108928;28;20278;-65
2023/05/07 09:14:32;;;;;;;2.25;1.80;;;25.00;91.10;;;26.45;38.53;97816.88;5110218;28;20299;-64
2023/05/07 09:17:05;;;;;;;2.35;1.90;;;25.50;90.00;;;26.45;40.59;97822.13;5110215;28;20535;-63
2023/05/07 09:19:39;;;;;;;2.17;1.98;;;25.60;91.70;;;26.50;38.26;97821.25;5111897;28;20315;-65
2023/05/07 09:22:13;;;;;;;2.25;1.95;;;25.70;88.90;;;26.60;39.86;97815.94;5112500;28;20215;-65
2023/05/07 09:24:50;;;;;;;1.90;1.80;;;25.70;91.20;;;26.63;37.73;97816.78;5114006;28;20212;-65
2023/05/07 09:27:22;;;;;;;2.60;2.40;;;25.70;88.40;;;26.75;38.18;97831.53;5129601;28;20228;-65
2023/05/07 09:29:56;;;;;;;2.70;1.95;;;25.80;89.20;;;26.78;36.12;97825.41;5110632;28;20220;-65
2023/05/07 09:32:30;;;;;;;2.20;2.00;;;26.00;85.40;;;26.39;37.43;97822.19;5110425;28;20204;-66
2023/05/07 09:35:06;;;;;;;2.53;1.80;;;25.60;87.00;;;26.13;36.72;97824.97;5107623;28;20305;-63
2023/05/07 09:37:39;;;;;;;2.50;1.95;;;25.10;85.20;;;26.26;37.07;97824.84;5111113;28;20204;-65
2023/05/07 09:40:22;;;;;;;2.33;1.95;;;25.40;86.10;;;26.24;36.23;97820.50;5111183;28;20236;-63
2023/05/07 09:42:56;;;;;;;2.67;1.98;;;25.50;84.30;;;26.23;37.31;97816.16;5112169;28;20275;-65
2023/05/07 09:45:29;;;;;;;2.55;2.03;;;25.40;86.00;;;26.06;38.12;97819.72;5109194;28;20208;-63
2023/05/07 09:48:06;;;;;;;2.35;1.98;;;25.30;87.30;;;26.09;39.11;97812.72;5112299;28;20274;-63
2023/05/07 09:50:49;;;;;;;3.17;2.10;;;25.30;89.20;;;26.12;38.12;97813.56;5110834;28;20235;-64
2023/05/07 09:53:23;;;;;;;2.25;2.05;;;25.40;88.00;;;26.00;37.96;97813.66;5111431;28;20224;-65
2023/05/07 09:55:58;;;;;;;2.08;1.92;;;25.40;86.20;;;25.94;38.43;97806.69;5110746;28;20205;-64
2023/05/07 09:58:32;;;;;;;2.45;2.00;;;25.40;86.50;;;26.00;38.77;97808.41;5111337;28;20647;-64
2023/05/07 10:01:06;;;;;;;3.20;2.20;;;25.30;87.30;;;25.98;38.02;97804.91;5114870;28;20211;-64
2023/05/07 10:03:42;;;;;;;2.13;2.00;;;25.50;85.80;;;25.50;39.94;97799.00;5110174;28;20299;-64
2023/05/07 10:06:17;;;;;;;2.20;2.03;;;25.00;88.70;;;25.73;39.90;97801.53;5104862;28;20323;-65
2023/05/07 10:08:51;;;;;;;2.72;2.10;;;25.00;89.70;;;25.81;40.65;97798.00;5112916;28;20235;-63
2023/05/07 10:11:25;;;;;;;2.10;2.00;;;25.10;90.10;;;25.87;39.62;97807.63;5109078;28;20216;-63
2023/05/07 10:13:58;;;;;;;2.00;1.90;;;25.30;88.80;;;25.75;37.93;97803.25;5115835;28;20300;-63
2023/05/07 10:16:36;;;;;;;1.92;1.80;;;25.10;86.10;;;25.44;37.99;97812.97;5112221;28;21612;-64
2023/05/07 10:19:10;;;;;;;2.30;2.10;;;24.80;85.60;;;25.63;37.21;97814.63;5113172;28;20223;-64
2023/05/07 10:21:52;;;;;;;3.42;2.28;;;25.00;84.80;;;25.73;38.82;97801.53;5111916;28;20219;-64
2023/05/07 10:24:27;;;;;;;3.67;2.28;;;25.10;87.10;;;25.72;39.72;97802.41;5115377;28;20208;-65
2023/05/07 10:27:03;;;;;;;2.22;2.03;;;25.00;88.40;;;25.95;39.39;97815.41;5117623;28;20227;-64
2023/05/07 10:29:46;;;;;;;2.22;2.13;;;25.00;88.40;;;25.95;38.24;97803.19;5112005;28;20242;-63
2023/05/07 10:32:38;;;;;;;2.10;1.90;;;25.30;86.50;;;25.92;38.80;97797.97;5110986;28;20258;-64
2023/05/07 10:35:20;;;;;;;2.75;2.20;;;25.10;87.40;;;25.99;39.16;97797.06;5110966;29;20205;-65
2023/05/07 10:37:54;;;;;;;2.47;2.28;;;25.30;87.40;;;25.84;38.98;97797.16;5110970;28;20197;-63
2023/05/07 10:40:27;;;;;;;2.38;2.17;;;25.20;87.70;;;25.51;39.88;97800.75;5113495;28;20232;-64
2023/05/07 10:43:02;;;;;;;2.20;2.10;;;24.80;87.70;;;25.76;39.82;97793.66;5107076;28;20245;-63
2023/05/07 10:45:35;;;;;;;2.38;2.13;;;24.90;89.10;;;25.96;38.79;97804.09;5111969;28;20206;-63